Time;durP1;ratioP1;P1;durP2;ratioP2;P2;SDS_P1;SDS_P2;PMS_P1;PMS_P2;Temp;Humidity;BMP_temperature;BMP_pressure;BME280_temperature;BME280_humidity;BME280_pressure;Samples;Min_cycle;Max_cycle;Signal;HPM_P1;HPM_P2
2023/10/03 00:00:32;;;;;;;;;;;;;;;17.09;54.84;101773.13;4940697;29;1911;-59
2023/10/03 00:02:58;;;;;;;;;;;;;;;16.87;55.21;101766.72;4957667;29;1041;-57
2023/10/03 00:05:28;;;;;;;;;;;;;;;16.72;55.06;101761.84;4958029;29;1990;-53
2023/10/03 00:07:54;;;;;;;;;;;;;;;16.55;55.08;101753.56;4957979;29;1209;-55
2023/10/03 00:10:19;;;;;;;;;;;;;;;16.69;55.65;101757.69;4954179;29;1090;-55
2023/10/03 00:12:48;;;;;;;;;;;;;;;17.85;54.57;101757.88;4948233;29;1031;-55
2023/10/03 00:15:17;;;;;;;;;;;;;;;17.31;54.99;101764.09;4953340;29;1042;-55
2023/10/03 00:17:44;;;;;;;;;;;;;;;16.95;55.29;101763.59;4958251;29;989;-55
2023/10/03 00:20:12;;;;;;;;;;;;;;;16.77;54.90;101768.25;4945024;29;1906;-55
2023/10/03 00:22:38;;;;;;;;;;;;;;;16.69;54.80;101762.31;4957639;29;1072;-57
2023/10/03 00:25:05;;;;;;;;;;;;;;;16.65;54.61;101763.91;4945329;29;1136;-57
2023/10/03 00:27:35;;;;;;;;;;;;;;;17.35;55.33;101768.00;4957956;29;1041;-56
2023/10/03 00:30:00;;;;;;;;;;;;;;;17.51;54.67;101768.19;4956169;28;2260;-56
2023/10/03 00:32:26;;;;;;;;;;;;;;;16.98;55.37;101763.06;4957401;29;1320;-57
2023/10/03 00:34:51;;;;;;;;;;;;;;;16.80;55.05;101766.88;4954410;28;1073;-56
2023/10/03 00:37:18;;;;;;;;;;;;;;;16.69;54.96;101752.19;4941601;29;1090;-56
2023/10/03 00:39:43;;;;;;;;;;;;;;;17.25;55.70;101752.19;4957963;29;1044;-56
2023/10/03 00:42:09;;;;;;;;;;;;;;;17.62;54.60;101743.31;4948299;29;1906;-57
2023/10/03 00:44:34;;;;;;;;;;;;;;;17.15;55.08;101757.53;4937999;29;1111;-56
2023/10/03 00:47:00;;;;;;;;;;;;;;;16.88;55.11;101751.91;4948179;29;1439;-56
2023/10/03 00:49:28;;;;;;;;;;;;;;;16.75;55.00;101751.16;4954583;29;1080;-56
2023/10/03 00:51:56;;;;;;;;;;;;;;;16.69;55.01;101760.44;4950863;29;1049;-56
2023/10/03 00:54:21;;;;;;;;;;;;;;;17.77;54.58;101753.66;4956466;29;1381;-56
2023/10/03 00:56:47;;;;;;;;;;;;;;;17.17;55.42;101763.63;4956872;29;1296;-56
2023/10/03 00:59:13;;;;;;;;;;;;;;;16.95;55.26;101766.34;4954244;29;1124;-56
2023/10/03 01:01:41;;;;;;;;;;;;;;;16.75;55.38;101767.66;4944776;29;1911;-56
2023/10/03 01:04:11;;;;;;;;;;;;;;;16.68;54.91;101771.66;4954862;29;1442;-56
2023/10/03 01:06:36;;;;;;;;;;;;;;;16.71;55.48;101777.47;4957544;29;1108;-56
2023/10/03 01:09:09;;;;;;;;;;;;;;;17.72;54.82;101767.34;4956381;29;1222;-56
2023/10/03 01:11:36;;;;;;;;;;;;;;;17.16;55.41;101772.13;4957795;29;1021;-56
2023/10/03 01:14:01;;;;;;;;;;;;;;;16.86;55.30;101767.81;4957519;29;1125;-55
2023/10/03 01:16:37;;;;;;;;;;;;;;;16.80;54.94;101771.56;4958146;29;1076;-55
2023/10/03 01:19:20;;;;;;;;;;;;;;;16.62;55.07;101765.25;4956504;29;1077;-55
2023/10/03 01:21:50;;;;;;;;;;;;;;;16.77;55.57;101771.00;4954144;29;1961;-58
2023/10/03 01:24:20;;;;;;;;;;;;;;;17.81;54.39;101766.88;4940857;29;1125;-58
2023/10/03 01:26:46;;;;;;;;;;;;;;;17.25;55.20;101763.19;4946524;29;1070;-57
2023/10/03 01:29:12;;;;;;;;;;;;;;;16.97;55.08;101768.81;4952336;29;1178;-58
2023/10/03 01:31:39;;;;;;;;;;;;;;;16.77;55.00;101770.13;4957525;29;1021;-57
2023/10/03 01:34:05;;;;;;;;;;;;;;;16.65;55.06;101774.88;4952945;29;1061;-59
2023/10/03 01:36:31;;;;;;;;;;;;;;;17.20;55.89;101762.28;4961518;29;1053;-58
2023/10/03 01:38:56;;;;;;;;;;;;;;;17.66;54.86;101768.38;4958925;29;887;-58
2023/10/03 01:41:22;;;;;;;;;;;;;;;17.06;55.31;101762.66;4945716;29;1907;-58
2023/10/03 01:43:48;;;;;;;;;;;;;;;16.84;55.48;101767.22;4960265;29;1437;-57
2023/10/03 01:46:13;;;;;;;;;;;;;;;16.77;55.23;101765.50;4960871;29;1032;-57
2023/10/03 01:48:39;;;;;;;;;;;;;;;16.60;54.95;101764.66;4961015;29;1427;-57
2023/10/03 01:51:05;;;;;;;;;;;;;;;16.58;54.73;101761.34;4952381;29;1037;-55
2023/10/03 01:53:30;;;;;;;;;;;;;;;17.72;55.06;101764.59;4960939;29;1048;-55
2023/10/03 01:55:56;;;;;;;;;;;;;;;17.35;55.21;101765.25;4955550;29;1336;-54
2023/10/03 01:58:24;;;;;;;;;;;;;;;17.03;55.28;101756.84;4951353;29;1225;-55
2023/10/03 02:00:50;;;;;;;;;;;;;;;16.76;55.24;101766.56;4957765;29;1911;-55
2023/10/03 02:03:16;;;;;;;;;;;;;;;16.73;54.85;101764.34;4951425;29;816;-55
2023/10/03 02:05:42;;;;;;;;;;;;;;;16.58;54.95;101755.84;4955929;29;1209;-55
2023/10/03 02:08:20;;;;;;;;;;;;;;;17.71;55.03;101762.94;4940768;29;1132;-55
2023/10/03 02:10:51;;;;;;;;;;;;;;;17.22;55.52;101754.63;4946962;29;1133;-55
2023/10/03 02:13:17;;;;;;;;;;;;;;;16.91;55.26;101755.03;4945990;29;1145;-55
2023/10/03 02:15:44;;;;;;;;;;;;;;;16.77;55.35;101749.03;4952084;29;862;-57
2023/10/03 02:18:10;;;;;;;;;;;;;;;16.64;54.80;101743.84;4958382;29;1105;-57
2023/10/03 02:20:38;;;;;;;;;;;;;;;16.55;55.29;101750.84;4947656;29;1963;-56
2023/10/03 02:23:05;;;;;;;;;;;;;;;17.74;55.01;101743.19;4947320;29;1160;-56
2023/10/03 02:25:35;;;;;;;;;;;;;;;17.17;55.57;101749.88;4960494;29;1061;-56
2023/10/03 02:28:02;;;;;;;;;;;;;;;16.92;55.32;101755.84;4959654;29;918;-56
2023/10/03 02:30:29;;;;;;;;;;;;;;;16.76;54.98;101747.34;4974972;28;1128;-56
2023/10/03 02:32:55;;;;;;;;;;;;;;;17.24;56.03;101746.97;4947421;28;1280;-56
2023/10/03 02:35:22;;;;;;;;;;;;;;;17.47;55.22;101753.28;4958520;28;1105;-57
2023/10/03 02:37:49;;;;;;;;;;;;;;;17.03;55.68;101757.66;4946506;29;1560;-56
2023/10/03 02:40:21;;;;;;;;;;;;;;;16.84;55.32;101756.25;4949601;29;1985;-57
2023/10/03 02:42:51;;;;;;;;;;;;;;;16.72;55.01;101757.16;4957353;29;1077;-56
2023/10/03 02:45:22;;;;;;;;;;;;;;;16.68;54.88;101749.69;4939935;29;1333;-57
2023/10/03 02:47:55;;;;;;;;;;;;;;;17.79;54.89;101757.00;4943505;29;1406;-56
2023/10/03 02:50:23;;;;;;;;;;;;;;;17.33;55.20;101756.41;4955424;29;1347;-55
2023/10/03 02:52:48;;;;;;;;;;;;;;;16.98;55.37;101757.56;4956865;29;1106;-55
2023/10/03 02:55:16;;;;;;;;;;;;;;;16.93;54.77;101757.53;4947839;29;1532;-56
2023/10/03 02:57:42;;;;;;;;;;;;;;;16.72;54.79;101761.84;4940786;29;1081;-55
2023/10/03 03:00:14;;;;;;;;;;;;;;;16.64;55.26;101754.84;4952233;29;1987;-55
2023/10/03 03:02:41;;;;;;;;;;;;;;;17.76;54.79;101756.66;4953365;29;1143;-56
2023/10/03 03:05:10;;;;;;;;;;;;;;;17.15;55.48;101764.97;4951391;29;1400;-56
2023/10/03 03:07:36;;;;;;;;;;;;;;;16.90;55.36;101763.50;4939970;29;1246;-56
2023/10/03 03:10:02;;;;;;;;;;;;;;;16.75;55.06;101762.16;4939657;29;1105;-55
2023/10/03 03:12:28;;;;;;;;;;;;;;;16.64;54.86;101770.50;4959096;29;1209;-56
2023/10/03 03:14:54;;;;;;;;;;;;;;;16.65;55.46;101767.50;4952046;29;1584;-55
2023/10/03 03:17:21;;;;;;;;;;;;;;;17.84;54.56;101772.72;4959520;29;1110;-55
2023/10/03 03:19:47;;;;;;;;;;;;;;;17.20;55.24;101779.59;4956650;29;2490;-56
2023/10/03 03:22:16;;;;;;;;;;;;;;;16.88;55.36;101776.63;4958760;29;1978;-56
2023/10/03 03:24:42;;;;;;;;;;;;;;;16.83;54.78;101771.06;4955312;29;1950;-56
2023/10/03 03:27:12;;;;;;;;;;;;;;;16.62;54.74;101770.75;4950683;29;1654;-56
2023/10/03 03:29:38;;;;;;;;;;;;;;;17.52;55.22;101772.63;4946700;29;1971;-55
2023/10/03 03:32:04;;;;;;;;;;;;;;;17.44;54.65;101766.44;4950149;29;2176;-56
2023/10/03 03:34:30;;;;;;;;;;;;;;;16.96;55.24;101775.41;4955545;29;1871;-56
2023/10/03 03:36:56;;;;;;;;;;;;;;;16.74;55.03;101773.41;4958777;29;1061;-55
2023/10/03 03:39:21;;;;;;;;;;;;;;;16.73;54.59;101775.31;4955623;29;1100;-56
2023/10/03 03:41:48;;;;;;;;;;;;;;;16.53;54.70;101775.78;4958533;29;1902;-56
2023/10/03 03:44:14;;;;;;;;;;;;;;;17.00;55.57;101769.16;4958827;29;1041;-54
2023/10/03 03:46:40;;;;;;;;;;;;;;;17.67;54.61;101783.81;4953550;28;1061;-55
2023/10/03 03:49:07;;;;;;;;;;;;;;;16.97;55.47;101772.41;4945902;29;1104;-54
2023/10/03 03:51:33;;;;;;;;;;;;;;;16.73;55.18;101774.47;4954284;29;1085;-52
2023/10/03 03:54:02;;;;;;;;;;;;;;;16.68;54.68;101777.16;4955820;29;1085;-53
2023/10/03 03:56:28;;;;;;;;;;;;;;;16.51;54.69;101774.38;4957558;29;1092;-53
2023/10/03 03:58:53;;;;;;;;;;;;;;;17.50;55.29;101772.03;4958350;29;1196;-54
2023/10/03 04:01:23;;;;;;;;;;;;;;;17.33;55.00;101770.16;4957921;29;1961;-55
2023/10/03 04:03:53;;;;;;;;;;;;;;;17.03;55.12;101773.31;4948684;29;1843;-53
2023/10/03 04:06:21;;;;;;;;;;;;;;;16.76;54.92;101769.31;4957365;29;946;-55
2023/10/03 04:08:48;;;;;;;;;;;;;;;16.64;54.84;101768.56;4957685;29;1149;-55
2023/10/03 04:11:14;;;;;;;;;;;;;;;17.17;55.72;101779.31;4958189;29;1030;-53
2023/10/03 04:13:49;;;;;;;;;;;;;;;17.57;54.62;101772.66;4958180;29;1053;-51
2023/10/03 04:16:18;;;;;;;;;;;;;;;17.00;55.23;101777.41;4945989;29;1237;-51
2023/10/03 04:18:44;;;;;;;;;;;;;;;16.80;54.96;101785.28;4958304;29;1231;-49
2023/10/03 04:21:10;;;;;;;;;;;;;;;16.63;54.85;101786.13;4944989;29;1902;-54
2023/10/03 04:23:36;;;;;;;;;;;;;;;17.18;55.43;101775.44;4958381;29;1017;-56
2023/10/03 04:26:02;;;;;;;;;;;;;;;17.45;54.85;101784.63;4957949;29;1104;-55
2023/10/03 04:28:28;;;;;;;;;;;;;;;17.11;54.79;101786.63;4951198;29;1088;-56
2023/10/03 04:30:53;;;;;;;;;;;;;;;16.77;54.95;101779.22;4958176;29;1204;-55
2023/10/03 04:33:20;;;;;;;;;;;;;;;16.64;54.79;101786.97;4957796;29;1046;-53
2023/10/03 04:35:46;;;;;;;;;;;;;;;16.92;55.55;101786.06;4947467;29;1034;-55
2023/10/03 04:38:17;;;;;;;;;;;;;;;17.98;54.32;101789.69;4951870;29;1136;-55
2023/10/03 04:40:43;;;;;;;;;;;;;;;16.82;54.90;101794.13;4942208;29;1969;-56
2023/10/03 04:43:11;;;;;;;;;;;;;;;16.64;52.80;101784.22;4957386;29;1166;-56
2023/10/03 04:45:37;;;;;;;;;;;;;;;16.43;51.31;101792.94;4957957;29;1061;-56
2023/10/03 04:48:03;;;;;;;;;;;;;;;16.33;50.16;101791.94;4957973;29;1061;-59
2023/10/03 04:50:29;;;;;;;;;;;;;;;16.28;49.49;101797.31;4957378;29;1105;-58
2023/10/03 04:52:54;;;;;;;;;;;;;;;16.16;48.64;101800.09;4947774;29;1088;-55
2023/10/03 04:55:21;;;;;;;;;;;;;;;16.16;48.13;101797.38;4958073;29;1246;-57
2023/10/03 04:57:46;;;;;;;;;;;;;;;16.73;50.82;101802.78;4957944;28;1129;-57
2023/10/03 05:00:15;;;;;;;;;;;;;;;16.36;50.24;101807.91;4961200;29;1995;-56
2023/10/03 05:02:42;;;;;;;;;;;;;;;16.21;49.11;101805.69;4947761;29;1192;-57
2023/10/03 05:05:10;;;;;;;;;;;;;;;16.96;50.23;101806.47;4956556;28;903;-56
2023/10/03 05:07:35;;;;;;;;;;;;;;;16.38;50.22;101814.81;4948446;29;1073;-56
2023/10/03 05:10:01;;;;;;;;;;;;;;;16.29;48.97;101819.03;4960432;29;1145;-57
2023/10/03 05:12:27;;;;;;;;;;;;;;;16.31;48.19;101816.03;4960548;29;1136;-56
2023/10/03 05:14:52;;;;;;;;;;;;;;;16.63;48.54;101823.75;4959999;28;1212;-57
2023/10/03 05:17:18;;;;;;;;;;;;;;;16.60;50.02;101825.06;4947790;28;1073;-58
2023/10/03 05:19:43;;;;;;;;;;;;;;;16.31;49.25;101827.84;4959877;29;1054;-57
2023/10/03 05:22:09;;;;;;;;;;;;;;;16.23;48.31;101828.25;4957658;29;1915;-56
2023/10/03 05:24:35;;;;;;;;;;;;;;;16.99;49.88;101827.13;4959189;28;1050;-54
2023/10/03 05:27:00;;;;;;;;;;;;;;;16.55;49.43;101824.97;4959997;29;1037;-52
2023/10/03 05:29:29;;;;;;;;;;;;;;;16.41;48.50;101833.53;4956653;29;974;-55
2023/10/03 05:31:54;;;;;;;;;;;;;;;16.46;47.56;101830.03;4948512;29;1125;-51
2023/10/03 05:34:23;;;;;;;;;;;;;;;16.28;47.26;101839.31;4957705;29;1031;-55
2023/10/03 05:36:48;;;;;;;;;;;;;;;16.80;49.13;101841.06;4950174;29;1037;-54
2023/10/03 05:39:16;;;;;;;;;;;;;;;16.53;48.76;101843.63;4959467;29;1152;-54
2023/10/03 05:41:42;;;;;;;;;;;;;;;17.60;49.79;101844.50;4950100;29;1907;-55
2023/10/03 05:44:18;;;;;;;;;;;;;;;17.08;50.23;101833.84;4959908;29;1086;-56
2023/10/03 05:46:44;;;;;;;;;;;;;;;16.68;49.51;101843.06;4960018;29;1124;-55
2023/10/03 05:49:09;;;;;;;;;;;;;;;16.57;48.51;101840.13;4960049;29;1143;-54
2023/10/03 05:51:34;;;;;;;;;;;;;;;16.58;47.88;101840.97;4959501;28;1169;-54
2023/10/03 05:54:00;;;;;;;;;;;;;;;17.09;49.43;101836.34;4947137;29;1168;-57
2023/10/03 05:56:26;;;;;;;;;;;;;;;16.67;49.22;101847.72;4960138;29;1139;-56
2023/10/03 05:58:52;;;;;;;;;;;;;;;16.54;48.25;101848.03;4959663;29;1022;-53
2023/10/03 06:01:17;;;;;;;;;;;;;;;16.45;47.88;101846.75;4906040;29;1252726;-56
2023/10/03 06:03:43;;;;;;;;;;;;;;;16.39;47.46;101846.66;4958733;29;1181;-56
2023/10/03 06:06:08;;;;;;;;;;;;;;;16.43;46.81;101847.00;4949501;29;1050;-55
2023/10/03 06:08:34;;;;;;;;;;;;;;;16.29;46.81;101849.22;4958710;29;1136;-53
2023/10/03 06:11:00;;;;;;;;;;;;;;;17.18;48.41;101858.75;4960124;28;978;-55
2023/10/03 06:13:26;;;;;;;;;;;;;;;16.65;48.62;101860.88;4960744;29;1042;-56
2023/10/03 06:15:52;;;;;;;;;;;;;;;16.52;47.95;101858.41;4958319;29;1058;-54
2023/10/03 06:18:18;;;;;;;;;;;;;;;16.57;47.14;101855.78;4959230;29;1223;-56
2023/10/03 06:20:43;;;;;;;;;;;;;;;16.40;46.89;101859.31;4949062;29;1898;-55
2023/10/03 06:23:09;;;;;;;;;;;;;;;16.37;46.48;101848.84;4958959;29;1062;-55
2023/10/03 06:25:35;;;;;;;;;;;;;;;16.29;46.48;101856.63;4960980;29;1057;-56
2023/10/03 06:28:01;;;;;;;;;;;;;;;16.23;46.20;101852.97;4944930;29;1315;-57
2023/10/03 06:30:27;;;;;;;;;;;;;;;16.58;46.90;101865.69;4950695;29;1108;-56
2023/10/03 06:32:52;;;;;;;;;;;;;;;16.95;48.23;101859.75;4960220;29;1140;-55
2023/10/03 06:35:19;;;;;;;;;;;;;;;16.52;48.22;101866.66;4960472;29;1180;-55
2023/10/03 06:37:44;;;;;;;;;;;;;;;16.52;47.16;101872.16;4947801;29;1126;-54
2023/10/03 06:40:13;;;;;;;;;;;;;;;17.19;48.68;101871.38;4953805;29;1937;-57
2023/10/03 06:42:39;;;;;;;;;;;;;;;16.66;48.70;101873.53;4956911;29;1013;-59
2023/10/03 06:45:08;;;;;;;;;;;;;;;16.55;47.97;101861.50;4950873;29;1146;-60
2023/10/03 06:47:35;;;;;;;;;;;;;;;16.50;47.38;101869.66;4943667;29;1164;-57
2023/10/03 06:50:00;;;;;;;;;;;;;;;16.45;46.81;101863.22;4954468;28;1129;-55
2023/10/03 06:52:26;;;;;;;;;;;;;;;16.45;46.42;101868.72;4958301;29;1131;-54
2023/10/03 06:54:51;;;;;;;;;;;;;;;16.29;46.25;101867.63;4959687;28;1382;-55
2023/10/03 06:57:17;;;;;;;;;;;;;;;17.06;47.87;101869.00;4954543;28;1163;-55
2023/10/03 06:59:42;;;;;;;;;;;;;;;16.58;47.90;101873.94;4960134;28;1160;-57
2023/10/03 07:02:08;;;;;;;;;;;;;;;16.69;47.58;101873.03;4958816;28;1987;-58
2023/10/03 07:04:34;;;;;;;;;;;;;;;16.94;48.48;101869.06;4959502;29;1287;-58
2023/10/03 07:06:59;;;;;;;;;;;;;;;16.63;48.13;101882.22;4959665;29;1041;-56
2023/10/03 07:09:24;;;;;;;;;;;;;;;16.54;47.79;101872.75;4952698;29;1113;-56
2023/10/03 07:11:50;;;;;;;;;;;;;;;16.57;46.89;101875.81;4953439;28;1473;-54
2023/10/03 07:14:16;;;;;;;;;;;;;;;16.51;46.68;101878.72;4959955;28;1394;-56
2023/10/03 07:16:42;;;;;;;;;;;;;;;16.42;46.39;101879.13;4958688;29;1177;-57
2023/10/03 07:19:10;;;;;;;;;;;;;;;16.29;46.54;101878.59;4959246;29;997;-55
2023/10/03 07:21:37;;;;;;;;;;;;;;;16.61;46.55;101881.66;4940786;29;1990;-55
2023/10/03 07:24:03;;;;;;;;;;;;;;;17.25;48.07;101886.03;4951664;29;1205;-56
2023/10/03 07:26:28;;;;;;;;;;;;;;;16.78;48.34;101881.69;4946719;29;1086;-55
2023/10/03 07:28:58;;;;;;;;;;;;;;;16.61;47.70;101884.41;4959158;28;1116;-55
2023/10/03 07:31:24;;;;;;;;;;;;;;;16.50;47.32;101868.81;4946498;29;1033;-54
2023/10/03 07:33:52;;;;;;;;;;;;;;;16.46;46.98;101884.13;4958994;28;1130;-55
2023/10/03 07:36:18;;;;;;;;;;;;;;;16.41;46.68;101882.94;4958830;29;978;-54
2023/10/03 07:38:45;;;;;;;;;;;;;;;16.42;46.18;101878.28;4958621;29;1561;-56
2023/10/03 07:41:13;;;;;;;;;;;;;;;17.14;47.35;101878.72;4953404;28;1992;-56
2023/10/03 07:43:42;;;;;;;;;;;;;;;16.62;47.89;101877.00;4956214;28;1251;-53
2023/10/03 07:46:07;;;;;;;;;;;;;;;16.58;47.38;101876.66;4955275;28;1173;-57
2023/10/03 07:48:33;;;;;;;;;;;;;;;16.45;46.87;101876.97;4958613;29;1022;-56
2023/10/03 07:50:59;;;;;;;;;;;;;;;16.32;46.85;101876.16;4959483;29;1033;-57
2023/10/03 07:53:29;;;;;;;;;;;;;;;16.36;46.39;101874.59;4958044;29;1166;-57
2023/10/03 07:55:56;;;;;;;;;;;;;;;17.44;47.28;101879.19;4947092;29;1157;-58
2023/10/03 07:58:22;;;;;;;;;;;;;;;16.68;48.23;101879.59;4957834;29;1081;-56
2023/10/03 08:00:47;;;;;;;;;;;;;;;16.65;47.69;101879.25;4946675;29;1918;-59
2023/10/03 08:03:13;;;;;;;;;;;;;;;16.60;47.32;101880.81;4958214;29;1090;-55
2023/10/03 08:05:39;;;;;;;;;;;;;;;17.01;48.56;101880.75;4955964;29;985;-55
2023/10/03 08:08:05;;;;;;;;;;;;;;;16.80;48.09;101878.69;4945820;29;1041;-55
2023/10/03 08:10:30;;;;;;;;;;;;;;;16.71;47.54;101876.34;4951093;29;1526;-54
2023/10/03 08:12:57;;;;;;;;;;;;;;;17.20;48.37;101875.00;4952954;29;1105;-55
2023/10/03 08:15:31;;;;;;;;;;;;;;;16.85;48.33;101881.53;4950504;29;1243;-53
2023/10/03 08:17:57;;;;;;;;;;;;;;;16.67;47.70;101874.34;4945475;29;1116;-53
2023/10/03 08:20:23;;;;;;;;;;;;;;;16.60;47.33;101882.72;4958501;29;1914;-51
2023/10/03 08:22:52;;;;;;;;;;;;;;;16.57;46.54;101872.25;4958033;29;1093;-53
2023/10/03 08:25:21;;;;;;;;;;;;;;;16.62;46.23;101861.38;4958207;29;1033;-55
2023/10/03 08:27:50;;;;;;;;;;;;;;;16.76;47.01;101876.44;4958327;29;1021;-54
2023/10/03 08:30:28;;;;;;;;;;;;;;;16.85;48.11;101876.84;4953134;29;979;-52
2023/10/03 08:32:54;;;;;;;;;;;;;;;16.71;47.34;101867.28;4945284;28;1105;-54
2023/10/03 08:35:20;;;;;;;;;;;;;;;17.49;47.40;101864.69;4948165;28;1073;-55
2023/10/03 08:37:45;;;;;;;;;;;;;;;16.89;48.05;101855.25;4955404;29;1170;-54
2023/10/03 08:40:19;;;;;;;;;;;;;;;16.70;47.76;101855.44;4948445;29;1988;-54
2023/10/03 08:42:52;;;;;;;;;;;;;;;16.73;47.01;101856.88;4944500;29;1214;-53
2023/10/03 08:45:22;;;;;;;;;;;;;;;16.64;46.56;101858.38;4957538;29;1017;-51
2023/10/03 08:47:50;;;;;;;;;;;;;;;16.46;46.83;101862.16;4945490;29;1041;-53
2023/10/03 08:50:34;;;;;;;;;;;;;;;17.37;46.96;101861.22;4945522;29;1132;-53
2023/10/03 08:53:12;;;;;;;;;;;;;;;16.82;47.72;101866.38;4950940;29;1082;-53
2023/10/03 08:55:43;;;;;;;;;;;;;;;16.69;47.18;101866.69;4958016;29;1033;-55
2023/10/03 08:58:13;;;;;;;;;;;;;;;16.65;46.87;101854.53;4946800;29;1120;-54
2023/10/03 09:00:51;;;;;;;;;;;;;;;16.47;46.81;101848.19;4951071;29;1906;-54
2023/10/03 09:03:17;;;;;;;;;;;;;;;17.08;46.87;101848.44;4952265;29;1173;-54
2023/10/03 09:05:43;;;;;;;;;;;;;;;16.85;47.88;101854.06;4950694;29;1037;-54
2023/10/03 09:08:09;;;;;;;;;;;;;;;16.62;47.39;101849.53;4952045;29;1180;-54
2023/10/03 09:10:42;;;;;;;;;;;;;;;16.60;47.02;101850.59;4958176;29;1201;-54
2023/10/03 09:13:09;;;;;;;;;;;;;;;16.49;46.62;101851.50;4945086;29;1044;-54
2023/10/03 09:15:37;;;;;;;;;;;;;;;16.51;46.27;101843.88;4947899;29;1586;-53
2023/10/03 09:18:10;;;;;;;;;;;;;;;17.34;46.85;101845.22;4947631;29;1018;-54
2023/10/03 09:20:36;;;;;;;;;;;;;;;16.87;47.51;101851.88;4952636;28;1899;-55
2023/10/03 09:23:02;;;;;;;;;;;;;;;16.73;46.93;101841.25;4953080;28;1129;-55
2023/10/03 09:25:28;;;;;;;;;;;;;;;16.63;46.73;101845.72;4949917;29;1057;-54
2023/10/03 09:28:03;;;;;;;;;;;;;;;16.47;46.67;101837.22;4954981;29;1192;-54
2023/10/03 09:30:37;;;;;;;;;;;;;;;16.49;46.15;101845.19;4947943;29;903;-54
2023/10/03 09:33:06;;;;;;;;;;;;;;;16.49;45.89;101842.44;4957486;28;1049;-55
2023/10/03 09:35:34;;;;;;;;;;;;;;;16.33;46.18;101836.69;4957725;29;1092;-54
2023/10/03 09:38:05;;;;;;;;;;;;;;;16.42;45.79;101837.94;4957265;29;1137;-55
2023/10/03 09:40:50;;;;;;;;;;;;;;;17.38;46.47;101840.91;4945569;29;1904;-54
2023/10/03 09:43:27;;;;;;;;;;;;;;;16.79;47.56;101838.56;4953497;28;911;-53
2023/10/03 09:45:56;;;;;;;;;;;;;;;16.57;47.34;101839.31;4960333;28;1113;-53
2023/10/03 09:48:24;;;;;;;;;;;;;;;16.57;46.82;101836.56;4961120;29;1101;-52
2023/10/03 09:50:53;;;;;;;;;;;;;;;16.42;46.66;101837.94;4959586;29;1212;-54
2023/10/03 09:53:19;;;;;;;;;;;;;;;17.30;46.98;101839.41;4960534;29;1054;-52
2023/10/03 09:55:47;;;;;;;;;;;;;;;16.85;47.52;101840.31;4959168;29;1002;-56
2023/10/03 09:58:24;;;;;;;;;;;;;;;16.56;47.36;101827.50;4950150;29;1026;-53
2023/10/03 10:00:53;;;;;;;;;;;;;;;16.57;46.99;101831.88;4959031;29;1984;-55
2023/10/03 10:03:25;;;;;;;;;;;;;;;16.49;46.71;101825.97;4961198;29;1043;-55
2023/10/03 10:06:00;;;;;;;;;;;;;;;16.58;45.91;101816.25;4946056;29;1062;-56
2023/10/03 10:08:37;;;;;;;;;;;;;;;16.49;45.80;101804.81;4960315;28;1104;-54
2023/10/03 10:11:07;;;;;;;;;;;;;;;16.98;47.06;101809.78;4958624;28;1137;-56
2023/10/03 10:13:36;;;;;;;;;;;;;;;16.63;47.41;101810.84;4960796;29;1049;-55
2023/10/03 10:16:23;;;;;;;;;;;;;;;16.65;46.44;101819.66;4960793;28;1271;-59
2023/10/03 10:18:51;;;;;;;;;;;;;;;16.56;46.37;101804.69;4949347;29;1258;-50
2023/10/03 10:21:20;;;;;;;;;;;;;;;16.51;45.97;101799.94;4960254;29;1983;-53
2023/10/03 10:24:03;;;;;;;;;;;;;;;17.30;46.67;101805.59;4947716;29;1061;-56
2023/10/03 10:26:34;;;;;;;;;;;;;;;16.71;47.45;101810.44;4950566;29;1089;-54
2023/10/03 10:29:09;;;;;;;;;;;;;;;16.58;47.00;101794.28;4952257;29;1026;-56
2023/10/03 10:31:34;;;;;;;;;;;;;;;16.57;46.62;101796.19;4955495;28;1013;-54
2023/10/03 10:34:21;;;;;;;;;;;;;;;16.50;46.12;101792.78;4960545;29;1017;-54
2023/10/03 10:36:53;;;;;;;;;;;;;;;16.51;45.76;101793.59;4958487;29;1213;-56
2023/10/03 10:39:23;;;;;;;;;;;;;;;16.45;46.00;101784.44;4950165;29;1081;-56
2023/10/03 10:42:07;;;;;;;;;;;;;;;17.06;46.71;101792.88;4949988;29;1894;-56
2023/10/03 10:44:32;;;;;;;;;;;;;;;16.64;47.12;101790.53;4953755;29;1088;-56
2023/10/03 10:47:07;;;;;;;;;;;;;;;16.54;46.60;101782.97;4945376;29;1161;-53
2023/10/03 10:49:37;;;;;;;;;;;;;;;16.57;46.16;101787.94;4957206;29;1081;-55
2023/10/03 10:52:09;;;;;;;;;;;;;;;16.45;45.82;101784.44;4959619;29;1076;-55
2023/10/03 10:54:39;;;;;;;;;;;;;;;16.81;46.56;101786.97;4960020;29;1149;-55
2023/10/03 10:57:05;;;;;;;;;;;;;;;17.00;47.53;101784.78;4958571;28;1168;-54
2023/10/03 10:59:40;;;;;;;;;;;;;;;16.79;47.15;101772.63;4946829;29;1046;-57
2023/10/03 11:02:18;;;;;;;;;;;;;;;16.70;46.71;101770.31;4960056;28;1903;-56
2023/10/03 11:04:44;;;;;;;;;;;;;;;16.67;46.14;101765.31;4943517;29;1061;-57
2023/10/03 11:07:10;;;;;;;;;;;;;;;16.59;46.11;101771.22;4949712;29;868;-56
2023/10/03 11:09:38;;;;;;;;;;;;;;;17.31;46.89;101764.09;4955999;29;1069;-53
2023/10/03 11:12:06;;;;;;;;;;;;;;;16.86;47.14;101765.09;4950259;29;1034;-55
2023/10/03 11:14:33;;;;;;;;;;;;;;;16.68;46.71;101763.44;4959214;28;1104;-53
2023/10/03 11:16:59;;;;;;;;;;;;;;;16.61;46.39;101755.34;4964506;28;1184;-55
2023/10/03 11:19:24;;;;;;;;;;;;;;;16.61;46.09;101758.09;4960872;28;1145;-56
2023/10/03 11:21:50;;;;;;;;;;;;;;;16.45;46.00;101759.72;4948732;29;1906;-55
2023/10/03 11:24:16;;;;;;;;;;;;;;;16.89;46.55;101750.88;4970899;28;1129;-57
2023/10/03 11:26:45;;;;;;;;;;;;;;;17.39;47.15;101760.91;4950473;28;1054;-55
2023/10/03 11:29:11;;;;;;;;;;;;;;;16.92;47.54;101753.09;4952403;29;1073;-53
2023/10/03 11:31:40;;;;;;;;;;;;;;;16.90;46.55;101749.75;4951732;29;1021;-55
2023/10/03 11:34:06;;;;;;;;;;;;;;;16.74;46.55;101744.00;4945734;29;1120;-55
2023/10/03 11:36:41;;;;;;;;;;;;;;;17.30;47.49;101748.69;4946688;29;1045;-49
2023/10/03 11:39:07;;;;;;;;;;;;;;;16.92;47.27;101742.13;4953404;28;963;-54
2023/10/03 11:41:33;;;;;;;;;;;;;;;16.81;46.89;101740.28;4957487;28;1906;-58
2023/10/03 11:43:59;;;;;;;;;;;;;;;16.77;46.22;101731.69;4948444;29;1197;-55
2023/10/03 11:46:25;;;;;;;;;;;;;;;17.51;47.38;101732.44;4959043;29;1125;-57
2023/10/03 11:48:57;;;;;;;;;;;;;;;17.07;47.77;101736.84;4958950;29;1118;-59
2023/10/03 11:51:23;;;;;;;;;;;;;;;16.87;46.96;101737.34;4958527;29;1118;-55
2023/10/03 11:53:49;;;;;;;;;;;;;;;16.94;46.25;101739.94;4958359;29;1128;-55
2023/10/03 11:56:14;;;;;;;;;;;;;;;16.79;46.35;101735.03;4957250;29;844;-55
2023/10/03 11:58:40;;;;;;;;;;;;;;;16.71;46.03;101733.53;4945180;29;1152;-61
2023/10/03 12:01:05;;;;;;;;;;;;;;;16.72;45.74;101735.19;4958462;29;1936;-59
2023/10/03 12:03:31;;;;;;;;;;;;;;;17.30;46.47;101728.63;4958020;29;1033;-57
2023/10/03 12:05:57;;;;;;;;;;;;;;;17.26;47.20;101728.28;4947352;29;1164;-57
2023/10/03 12:08:23;;;;;;;;;;;;;;;16.95;46.90;101730.63;4944986;29;1171;-57
2023/10/03 12:10:49;;;;;;;;;;;;;;;17.33;46.73;101737.16;4958031;29;1110;-56
2023/10/03 12:13:15;;;;;;;;;;;;;;;17.21;47.61;101733.72;4957834;29;1029;-61
2023/10/03 12:15:45;;;;;;;;;;;;;;;17.07;47.21;101727.78;4949107;29;1057;-58
2023/10/03 12:18:15;;;;;;;;;;;;;;;16.90;46.72;101723.13;4955484;29;1078;-60
2023/10/03 12:20:41;;;;;;;;;;;;;;;16.75;46.26;101731.13;4957782;29;1910;-59
2023/10/03 12:23:07;;;;;;;;;;;;;;;16.83;45.99;101724.34;4958108;29;1351;-61
2023/10/03 12:25:32;;;;;;;;;;;;;;;17.35;46.91;101726.75;4958321;29;1204;-59
2023/10/03 12:27:58;;;;;;;;;;;;;;;17.02;47.09;101717.53;4957727;29;1092;-59
2023/10/03 12:30:24;;;;;;;;;;;;;;;16.85;46.82;101727.69;4958084;29;1236;-59
2023/10/03 12:32:53;;;;;;;;;;;;;;;16.87;46.30;101718.13;4949961;29;1134;-57
2023/10/03 12:35:18;;;;;;;;;;;;;;;17.47;46.79;101712.88;4949950;29;1070;-60
2023/10/03 12:37:45;;;;;;;;;;;;;;;17.17;47.33;101713.34;4956929;28;1129;-59
2023/10/03 12:40:15;;;;;;;;;;;;;;;16.92;47.19;101717.38;4947410;29;1086;-60
2023/10/03 12:42:43;;;;;;;;;;;;;;;16.91;46.69;101710.22;4947968;28;1906;-58
2023/10/03 12:45:12;;;;;;;;;;;;;;;16.88;46.36;101710.69;4957847;28;1136;-61
2023/10/03 12:47:39;;;;;;;;;;;;;;;16.76;45.86;101714.38;4958507;28;1126;-58
2023/10/03 12:50:05;;;;;;;;;;;;;;;18.00;46.49;101715.94;4957694;29;1073;-58